Confluence, PA

4:34 AM EDT on August 26, 2016 (GMT -0400)
KPACONFL2 | | Change Station

Elev 1336 ft 39.81 °N, 79.36 °W | Updated 8 seconds ago

Overcast
Overcast
71.0 °F
Feels Like 71.0 °F
N
0.0
Wind Variable Wind from North
Gusts 1.0 mph

Today
High -- | Low -- °F
--% Chance of Precip.
Yesterday
High -- | Low -- °F
Precip. -- in
Pressure 30.19 in
Visibility 5.0 miles
Clouds Overcast 500 ft
Dew Point 70 °F
Humidity 97%
Rainfall 0.00 in
Snow Depth Not available.
6:40 AM 7:57 PM
Last Quarter, 37% visible
METAR K2G4 260825Z AUTO 28007KT 252V312 5SM BR OVC005 21/21 A3019 RMK AO1
Pressure 30.19 in
Visibility 5.0 miles
Clouds Overcast 500 ft
Dew Point 70 °F
Humidity 97%
Rainfall 0.00 in
Snow Depth Not available.
6:40 AM 7:57 PM
Last Quarter, 37% visible
METAR K2G4 260825Z AUTO 28007KT 252V312 5SM BR OVC005 21/21 A3019 RMK AO1

10-Day Weather Forecast

Almanac

Astronomy

Aug. 26, 2016 Rise Set
Actual Time
Civil Twilight
Nautical Twilight
Astronomical Twilight
Moon
Length of Visible Light
Length of Day
Tomorrow will be .
, % of the Moon is Illuminated

Today's Extremes

State Highs State Lows

Community

WunderPhotos

Upload Photos

1,935,062 photos uploaded!

WunderBlog® & News

Nearby

Air Quality

  Air Quality AQ Index Pollutant
Not available.

Snow Depth

Station Depth Elevation

Earthquake Activity

City Distance Mag. Time & Date
Minimum magnitude displayed is 2.5.

Coastal Water Temperatures

Place Temperature

Stations

Nearby Weather Stations

Station Location Temp. Windchill Dew Point Humidity Wind Precip. Elev Updated Type
                   

Watches & Warnings

There are currently no watches in effect.